M I D A S
Marine Information and Data Acquisition System
Tripno 464 of the Zeeleeuw from 2003-04-17 06:31:34 to 2003-04-17 14:26:05
Back to CruiseResearch ActivitiesStationsMapUnderway DataData graphs

EquipmentUnitsComment
TimeDGPSUTC
LatitudeDGPSDM.mWGS84
LongitudeDGPSDM.mWGS84
TemperatureSBE03/SBE38deg celciusITS90
ConductivitySBE21S/mITS90
SalinitySBE21 Practical Salinity Units
ChlorophylAChelsea fluorimeterg/lCalibrated in Aceton
Missing or incorrect values are displayed as -999
Sea surface data collected by the RV Zeeleeuw from 2003-04-17 06:31:34 to 2003-04-17 14:26:05
Time Latitude Longitude Temperature Conductivity Salinity ChlorophylA
2003-04-17 06:32:38 51°13.76 2°55.71 17.029223 0.040439 0.202431 -0.680121
2003-04-17 06:33:38 51°13.85 2°55.61 17.035177 0.038671 0.193496 -0.680121
2003-04-17 06:34:38 51°13.97 2°55.53 17.042187 0.039191 0.196137 -0.71383
2003-04-17 06:35:38 51°14.08 2°55.44 17.046704 0.040542 0.203028 -0.71383
2003-04-17 06:36:38 51°14.2 2°55.35 17.02897 0.04179 0.209392 -0.680121
2003-04-17 06:37:38 51°14.31 2°55.17 17.046662 0.040646 0.203583 -0.71383
2003-04-17 06:38:38 51°14.45 2°54.93 17.006626 0.044597 0.223706 -0.71383
2003-04-17 06:39:38 51°14.61 2°54.69 16.984951 0.048027 0.241396 -0.680121
2003-04-17 06:40:38 51°14.79 2°54.51 16.975865 0.044908 0.225393 -0.71383
2003-04-17 06:41:38 51°14.97 2°54.34 16.97595 0.045012 0.225929 -0.71383
2003-04-17 06:42:38 51°15.14 2°54.16 16.956041 0.046364 0.232841 -0.71383
2003-04-17 06:43:38 51°15.31 2°53.96 16.976161 0.047611 0.239313 -0.680121
2003-04-17 06:44:38 51°15.49 2°53.76 16.994797 0.050418 0.253786 -0.680121
2003-04-17 06:45:38 51°15.69 2°53.57 16.995261 0.049587 0.249469 -0.680121
2003-04-17 06:46:38 51°15.88 2°53.39 16.995135 0.050002 0.251623 -0.680121
2003-04-17 06:47:38 51°16.09 2°53.22 16.998177 0.049898 0.251119 -0.71383
2003-04-17 06:48:38 51°16.29 2°53.05 17.002951 0.050106 0.252232 -0.680121
2003-04-17 06:49:38 51°16.48 2°52.88 17.00481 0.050418 0.253866 -0.71383
2003-04-17 06:50:38 51°16.68 2°52.73 17.00595 0.050626 0.254948 -0.71383
2003-04-17 06:51:38 51°16.88 2°52.62 16.987994 0.049067 0.24697 -0.71383
2003-04-17 06:52:38 51°17.09 2°52.53 16.990275 0.043869 0.220358 -0.680121
2003-04-17 06:53:38 51°17.29 2°52.44 16.991839 0.048547 0.244313 -0.71383
2003-04-17 06:54:38 51°17.5 2°52.36 16.988543 0.046468 0.233614 -0.680121
2003-04-17 06:55:38 51°17.71 2°52.33 16.996994 0.05021 0.252968 -0.680121
2003-04-17 06:56:38 51°17.91 2°52.33 16.96551 0.051354 0.258883 -0.680121
2003-04-17 06:57:38 51°18.11 2°52.42 16.998472 0.049587 0.249872 -0.680121
2003-04-17 06:58:38 51°18.3 2°52.56 17.000205 0.050938 0.256829 -0.680121
2003-04-17 06:59:38 51°18.48 2°52.71 17.002063 0.050522 0.254661 -0.680121
2003-04-17 07:00:38 51°18.67 2°52.85 17.003246 0.046988 0.236527 -0.71383
2003-04-17 07:01:38 51°18.85 2°53.01 16.998557 0.048443 0.243999 -0.71383
2003-04-17 07:02:38 51°19.01 2°53.19 17.00557 0.046572 0.234382 -0.71383
2003-04-17 07:03:38 51°19.18 2°53.38 17.007048 0.048339 0.243473 -0.680121
2003-04-17 07:04:38 51°19.35 2°53.56 17.012287 0.047299 0.238111 -0.680121
2003-04-17 07:05:38 51°19.52 2°53.74 17.013638 0.047403 0.238701 -0.680121
2003-04-17 07:06:38 51°19.68 2°53.92 17.016299 0.047299 0.238185 -0.680121
2003-04-17 07:07:38 51°19.85 2°54.1 17.018538 0.047715 0.24033 -0.71383
2003-04-17 07:08:38 51°20.02 2°54.27 17.020945 0.049898 0.251546 -0.71383
2003-04-17 07:09:38 51°20.19 2°54.45 17.024113 0.048443 0.244083 -0.71383
2003-04-17 07:10:38 51°20.36 2°54.63 17.028674 0.044908 0.225991 -0.680121
2003-04-17 07:11:38 51°20.52 2°54.8 17.030321 0.047611 0.239842 -0.680121
2003-04-17 07:12:38 51°20.69 2°54.99 17.030786 0.048027 0.242057 -0.71383
2003-04-17 07:13:38 51°20.83 2°55.2 17.034122 0.047611 0.239896 -0.71383
2003-04-17 07:14:38 51°20.97 2°55.43 17.037711 0.043869 0.22076 -0.71383
2003-04-17 07:15:38 51°21.11 2°55.65 17.032052 0.045948 0.231435 -0.71383
2003-04-17 07:16:38 51°21.25 2°55.87 17.03712 0.04574 0.230433 -0.71383
2003-04-17 07:17:38 51°21.39 2°56.09 17.041131 0.045948 0.231491 -0.71383
2003-04-17 07:18:38 51°21.53 2°56.31 17.039949 0.047819 0.241148 -0.71383
2003-04-17 07:19:38 51°21.67 2°56.53 17.044171 0.045116 0.227354 -0.680121
2003-04-17 07:20:38 51°21.81 2°56.75 17.04738 0.046884 0.236436 -0.71383
2003-04-17 07:21:38 51°21.95 2°56.97 17.051728 0.05021 0.253617 -0.680121
2003-04-17 07:22:38 51°22.08 2°57.2 17.054303 0.048755 0.246169 -0.71383
2003-04-17 07:23:38 51°22.21 2°57.43 17.052615 0.05021 0.25365 -0.71383
2003-04-17 07:24:38 51°22.32 2°57.69 17.059918 0.047196 0.238264 -0.680121
2003-04-17 07:25:38 51°22.43 2°57.94 17.063801 0.046988 0.237203 -0.680121
2003-04-17 07:26:38 51°22.54 2°58.2 17.067642 0.044805 0.226008 -0.71383
2003-04-17 07:27:38 51°22.65 2°58.46 17.071103 0.048235 0.243712 -0.680121
2003-04-17 07:28:38 51°22.76 2°58.72 17.073382 0.044077 0.222339 -0.680121
2003-04-17 07:29:38 51°22.86 2°58.98 17.080556 0.04522 0.228282 -0.71383
2003-04-17 07:30:38 51°22.97 2°59.24 17.085747 0.044493 0.224577 -0.680121
2003-04-17 07:31:38 51°23.07 2°59.5 18.225947 0.043037 0.217116 -0.71383
2003-04-17 07:32:38 51°23.13 2°59.71 12.139876 2.15982 13.716918 0.331161
2003-04-17 07:33:38 51°23.18 2°59.81 11.637932 3.448708 31.445513 68.289315
2003-04-17 07:34:38 51°23.21 2°59.89 10.109819 3.317681 30.4976 68.221896
2003-04-17 07:35:38 51°23.24 2°59.94 10.871678 3.312627 30.518899 68.255606
2003-04-17 07:36:38 51°23.24 2°59.99 12.253417 3.307256 30.500541 68.255606
2003-04-17 07:37:38 51°23.23 3°0.02 12.557113 3.310732 30.554344 68.323024
2003-04-17 07:38:38 51°23.22 3°0.04 10.759626 3.30831 30.537314 65.693691
2003-04-17 07:39:38 51°23.21 3°0.03 10.233035 3.310732 30.572656 64.783537
2003-04-17 07:40:38 51°23.2 3°0.02 11.202039 3.309995 30.565113 59.963093
2003-04-17 07:41:38 51°23.18 3°0 10.196197 3.31326 30.599931 60.805828
2003-04-17 07:42:38 51°23.17 2°59.98 12.096685 3.312523 30.603675 59.390033
2003-04-17 07:43:38 51°23.15 2°59.97 13.590051 3.311259 30.592854 64.817247
2003-04-17 07:44:38 51°23.14 2°59.98 10.665585 3.312207 30.622334 64.6487
2003-04-17 07:45:38 51°23.14 2°59.99 10.54574 3.312629 30.641503 64.850956
2003-04-17 07:46:38 51°23.14 3°0.02 12.857184 3.313155 30.65752 65.659982
2003-04-17 07:47:38 51°23.15 3°0.05 12.227487 3.309259 30.626767 68.525281
2003-04-17 07:48:38 51°23.16 3°0.08 11.847348 3.313366 30.673144 68.289315
2003-04-17 07:49:38 51°23.17 3°0.1 13.271483 3.313682 30.689154 68.221896
2003-04-17 07:50:38 51°23.18 3°0.1 10.823944 3.310102 30.663045 68.289315
2003-04-17 07:51:38 51°23.2 3°0.09 11.136293 3.309154 30.642683 68.221896
2003-04-17 07:52:38 51°23.2 3°0.09 10.715615 3.306731 30.613583 67.783674
2003-04-17 07:53:38 51°23.2 3°0.08 12.880804 3.310207 30.657743 68.491571
2003-04-17 07:54:38 51°23.2 3°0.08 11.826869 3.310734 30.673789 68.221896
2003-04-17 07:55:38 51°23.19 3°0.07 12.641428 3.310734 30.678047 68.255606
2003-04-17 07:56:38 51°23.18 3°0.06 11.559567 3.311681 30.691331 68.323024
2003-04-17 07:57:38 51°23.18 3°0.05 13.519779 3.312208 30.699581 68.255606
2003-04-17 07:58:38 51°23.18 3°0.04 11.897536 3.307995 30.652771 68.221896
2003-04-17 07:59:38 51°23.18 3°0.04 12.606904 3.302624 30.596215 68.289315
2003-04-17 08:00:38 51°23.2 3°0.05 10.805091 3.301044 30.582124 68.491571
2003-04-17 08:01:38 51°23.21 3°0.05 12.670891 3.312735 30.707832 68.188187
2003-04-17 08:02:38 51°23.22 3°0.06 12.264747 3.311998 30.702392 66.806101
2003-04-17 08:03:38 51°23.23 3°0.07 12.742375 3.312103 30.701342 65.053212
2003-04-17 08:04:38 51°23.23 3°0.07 12.852872 3.31126 30.699084 65.221759
2003-04-17 08:05:38 51°23.23 3°0.07 12.330015 3.305047 30.635258 66.637554
2003-04-17 08:06:38 51°23.22 3°0.07 10.686753 3.30273 30.612173 68.356734
2003-04-17 08:07:38 51°23.21 3°0.06 11.977687 3.308733 30.669568 64.345315
2003-04-17 08:08:38 51°23.21 3°0.05 11.76462 3.313577 30.707246 58.210204
2003-04-17 08:09:38 51°23.2 3°0.04 11.871057 3.310944 30.675241 57.771982
2003-04-17 08:10:38 51°23.2 3°0.03 10.78841 3.308206 30.654224 62.019366
2003-04-17 08:11:38 51°23.19 3°0.01 11.579487 3.305995 30.65777 68.188187
2003-04-17 08:12:38 51°23.18 3°0 12.186123 3.31263 30.727379 65.457725
2003-04-17 08:13:38 51°23.2 3°0.05 12.800029 3.310629 30.702545 64.277896
2003-04-17 08:14:38 51°23.23 3°0.32 12.220867 3.306311 30.660307 65.7274
2003-04-17 08:15:38 51°23.16 3°0.62 12.191658 3.298412 30.579163 68.255606
2003-04-17 08:16:38 51°23.1 3°0.93 12.329381 3.300729 30.625663 68.154477
2003-04-17 08:17:38 51°23.04 3°1.23 11.951056 3.311156 30.73786 68.154477
2003-04-17 08:18:38 51°23 3°1.55 11.424912 3.305574 30.686853 68.188187
2003-04-17 08:19:38 51°22.95 3°1.86 10.851588 3.302941 30.661906 68.188187
2003-04-17 08:20:38 51°22.89 3°2.17 11.032542 3.307996 30.715333 68.221896
2003-04-17 08:21:38 51°22.83 3°2.48 11.911479 3.312103 30.754742 68.188187
2003-04-17 08:22:38 51°22.77 3°2.8 12.155265 3.300097 30.641189 68.154477
2003-04-17 08:23:38 51°22.72 3°3.11 12.981479 3.304205 30.684157 68.154477
2003-04-17 08:24:38 51°22.66 3°3.43 12.799939 3.311998 30.755798 68.087059
2003-04-17 08:25:38 51°22.6 3°3.74 11.694542 3.309786 30.724489 68.154477
2003-04-17 08:26:38 51°22.55 3°4.05 11.526307 3.303889 30.660277 68.087059
2003-04-17 08:27:38 51°22.53 3°4.37 11.362145 3.307785 30.701771 68.120768
2003-04-17 08:28:38 51°22.51 3°4.7 12.227124 3.30273 30.643393 68.120768
2003-04-17 08:29:38 51°22.5 3°5.02 12.083418 3.302309 30.635512 68.154477
2003-04-17 08:30:38 51°22.51 3°5.35 11.861939 3.300729 30.619275 68.120768
2003-04-17 08:31:38 51°22.52 3°5.68 11.454508 3.299676 30.605613 68.120768
2003-04-17 08:32:38 51°22.53 3°6.01 10.744279 3.292725 30.527122 68.120768
2003-04-17 08:33:38 51°22.54 3°6.34 11.925236 3.292725 30.523586 68.053349
2003-04-17 08:34:38 51°22.55 3°6.67 12.009037 3.283352 30.417487 68.087059
2003-04-17 08:35:38 51°22.55 3°7.01 11.164682 3.273663 30.30265 68.053349
2003-04-17 08:36:38 51°22.54 3°7.34 11.58956 3.284089 30.398305 68.120768
2003-04-17 08:37:38 51°22.54 3°7.67 11.661533 3.281877 30.367904 68.053349
2003-04-17 08:38:38 51°22.56 3°8.01 11.341377 3.270714 30.232547 68.154477
2003-04-17 08:39:38 51°22.57 3°8.33 10.977578 3.258603 30.108606 68.188187
2003-04-17 08:40:38 51°22.59 3°8.62 10.965794 3.274505 30.265066 68.154477
2003-04-17 08:41:38 51°22.6 3°8.8 11.887101 3.274189 30.261133 68.120768
2003-04-17 08:42:38 51°22.61 3°8.91 10.741311 3.26292 30.105487 68.087059
2003-04-17 08:43:38 51°22.62 3°8.98 11.670952 3.261025 30.082651 68.154477
2003-04-17 08:44:38 51°22.62 3°9.05 11.686497 3.251442 29.988932 68.120768
2003-04-17 08:45:38 51°22.63 3°9.11 12.280787 3.255548 30.012878 68.154477
2003-04-17 08:46:38 51°22.63 3°9.17 11.664414 3.257233 30.001034 68.120768
2003-04-17 08:47:38 51°22.64 3°9.26 10.05684 3.25439 29.972039 68.120768
2003-04-17 08:48:38 51°22.66 3°9.35 11.866999 3.250178 29.93874 68.087059
2003-04-17 08:49:38 51°22.68 3°9.42 11.66798 3.241121 29.851899 68.120768
2003-04-17 08:50:38 51°22.7 3°9.44 11.814369 3.233329 29.776575 68.087059
2003-04-17 08:51:38 51°22.71 3°9.45 10.409549 3.242175 29.87778 68.053349
2003-04-17 08:52:38 51°22.71 3°9.46 10.424789 3.23533 29.803152 68.053349
2003-04-17 08:53:38 51°22.71 3°9.46 9.771581 3.245123 29.892016 68.01964
2003-04-17 08:54:38 51°22.72 3°9.47 10.206157 3.236172 29.8035 68.053349
2003-04-17 08:55:38 51°22.72 3°9.48 9.833397 3.241542 29.845193 68.053349
2003-04-17 08:56:38 51°22.71 3°9.49 12.557068 3.238173 29.801242 68.087059
2003-04-17 08:57:38 51°22.71 3°9.49 10.674638 3.233645 29.750322 68.053349
2003-04-17 08:58:38 51°22.71 3°9.49 12.436814 3.237751 29.795579 68.087059
2003-04-17 08:59:38 51°22.71 3°9.5 12.120759 3.242174 29.848884 68.01964
2003-04-17 09:00:38 51°22.71 3°9.49 11.904599 3.244912 29.858229 68.01964
2003-04-17 09:01:38 51°22.7 3°9.49 10.289233 3.247755 29.88857 68.087059
2003-04-17 09:02:38 51°22.69 3°9.48 11.925873 3.247018 29.895507 68.053349
2003-04-17 09:03:38 51°22.68 3°9.47 12.018817 3.243543 29.857337 68.01964
2003-04-17 09:04:38 51°22.68 3°9.46 12.22191 3.250283 29.945332 67.98593
2003-04-17 09:05:38 51°22.68 3°9.44 10.502608 3.251547 29.963746 68.053349
2003-04-17 09:06:38 51°22.68 3°9.42 10.148249 3.254916 29.987765 67.98593
2003-04-17 09:07:38 51°22.68 3°9.39 12.349297 3.251863 29.959375 68.053349
2003-04-17 09:08:38 51°22.68 3°9.37 11.884503 3.252284 29.959531 68.053349
2003-04-17 09:09:38 51°22.69 3°9.35 12.131657 3.254074 29.961919 68.053349
2003-04-17 09:10:38 51°22.7 3°9.35 11.974592 3.249229 29.88365 68.01964
2003-04-17 09:11:38 51°22.7 3°9.34 11.34248 3.24944 29.871371 68.053349
2003-04-17 09:12:38 51°22.7 3°9.35 10.784703 3.254178 29.908608 68.01964
2003-04-17 09:13:38 51°22.69 3°9.35 11.128457 3.251335 29.878304 68.053349
2003-04-17 09:14:38 51°22.66 3°9.35 11.056591 3.248703 29.890661 68.053349
2003-04-17 09:15:38 51°22.63 3°9.34 11.112457 3.246491 29.838621 68.087059
2003-04-17 09:16:38 51°22.6 3°9.33 10.413791 3.244595 29.791268 68.053349
2003-04-17 09:17:38 51°22.57 3°9.31 10.976839 3.240699 29.762598 68.01964
2003-04-17 09:18:38 51°22.52 3°9.29 10.860662 3.236171 29.722028 68.053349
2003-04-17 09:19:38 51°22.47 3°9.2 10.362084 3.237961 29.743644 68.053349
2003-04-17 09:20:38 51°22.48 3°9.03 10.573316 3.249229 29.878841 68.053349
2003-04-17 09:21:38 51°22.56 3°8.85 10.642042 3.253652 29.94315 68.053349
2003-04-17 09:22:38 51°22.64 3°8.64 11.359434 3.252283 29.930578 68.087059
2003-04-17 09:23:38 51°22.72 3°8.42 11.05096 3.259129 30.014838 68.01964
2003-04-17 09:24:38 51°22.8 3°8.19 10.656671 3.269238 30.138771 68.053349
2003-04-17 09:25:38 51°22.88 3°7.96 10.734726 3.27524 30.147279 68.053349
2003-04-17 09:26:38 51°22.96 3°7.75 10.683365 3.285878 30.355577 68.087059
2003-04-17 09:27:38 51°23.08 3°7.59 10.873761 3.276505 30.259685 68.01964
2003-04-17 09:28:38 51°23.2 3°7.4 9.919344 3.274189 30.261133 68.01964
2003-04-17 09:29:38 51°23.36 3°7.19 10.505401 3.280508 30.322319 68.087059
2003-04-17 09:30:38 51°23.52 3°6.98 10.835568 3.279138 30.299905 68.087059
2003-04-17 09:31:38 51°23.7 3°6.79 10.9049 3.287985 30.408717 68.087059
2003-04-17 09:32:38 51°23.89 3°6.65 10.54574 3.323793 30.817169 68.154477
2003-04-17 09:33:38 51°24.08 3°6.71 9.994062 3.337169 30.975446 68.120768
2003-04-17 09:34:38 51°24.21 3°6.9 10.779651 3.339065 30.998542 68.053349
2003-04-17 09:35:38 51°24.27 3°7.02 9.944557 3.339592 31.015459 68.087059
2003-04-17 09:36:38 51°24.27 3°7.05 10.471696 3.347807 31.097166 68.01964
2003-04-17 09:37:38 51°24.26 3°7.07 10.806249 3.346017 31.091699 68.053349
2003-04-17 09:38:38 51°24.24 3°7.11 10.984 3.345069 31.076891 68.01964
2003-04-17 09:39:38 51°24.24 3°7.15 10.949894 3.348755 31.083156 68.087059
2003-04-17 09:40:38 51°24.25 3°7.17 9.610507 3.341909 31.029246 68.087059
2003-04-17 09:41:38 51°24.25 3°7.17 10.697798 3.344437 31.052387 68.01964
2003-04-17 09:42:38 51°24.25 3°7.18 10.77789 3.345701 31.074755 68.01964
2003-04-17 09:43:38 51°24.24 3°7.19 11.091288 3.346859 31.083803 68.053349
2003-04-17 09:44:38 51°24.24 3°7.19 9.27829 3.347491 31.082387 68.01964
2003-04-17 09:45:38 51°24.23 3°7.2 10.882044 3.351493 31.111337 68.053349
2003-04-17 09:46:38 51°24.22 3°7.2 10.445708 3.346543 31.065433 68.01964
2003-04-17 09:47:38 51°24.21 3°7.2 10.366655 3.347912 31.088884 68.01964
2003-04-17 09:48:38 51°24.21 3°7.19 10.066727 3.350124 31.112376 67.98593
2003-04-17 09:49:38 51°24.22 3°7.2 10.725078 3.346543 31.072629 68.053349
2003-04-17 09:50:38 51°24.25 3°7.22 11.132652 3.350861 31.112758 68.01964
2003-04-17 09:51:38 51°24.27 3°7.23 9.214424 3.348228 31.093578 67.98593
2003-04-17 09:52:38 51°24.28 3°7.24 10.756103 3.348439 31.094305 67.98593
2003-04-17 09:53:38 51°24.29 3°7.25 10.407545 3.348228 31.093578 68.01964
2003-04-17 09:54:38 51°24.29 3°7.26 10.293809 3.353811 31.144561 68.01964
2003-04-17 09:55:38 51°24.3 3°7.27 10.029467 3.351177 31.123941 68.01964
2003-04-17 09:56:38 51°24.29 3°7.27 11.336598 3.352547 31.128664 67.98593
2003-04-17 09:57:38 51°24.29 3°7.27 9.960891 3.354442 31.14241 67.98593
2003-04-17 09:58:38 51°24.28 3°7.27 10.098721 3.357076 31.175291 68.01964
2003-04-17 09:59:38 51°24.27 3°7.27 10.749102 3.354758 31.155042 68.01964
2003-04-17 10:00:38 51°24.27 3°7.27 9.415015 3.356865 31.178899 68.01964
2003-04-17 10:01:38 51°24.27 3°7.28 11.292006 3.357497 31.182518 67.98593
2003-04-17 10:02:38 51°24.28 3°7.3 10.135613 3.350124 31.103728 67.98593
2003-04-17 10:03:38 51°24.29 3°7.32 9.885007 3.355601 31.173106 67.98593
2003-04-17 10:04:38 51°24.29 3°7.34 11.1161 3.355601 31.181777 68.01964
2003-04-17 10:05:38 51°24.3 3°7.37 11.536525 3.353916 31.131943 67.98593
2003-04-17 10:06:38 51°24.3 3°7.38 11.152148 3.362131 31.200613 68.01964
2003-04-17 10:07:38 51°24.31 3°7.4 10.235933 3.366134 31.251925 67.98593
2003-04-17 10:08:38 51°24.34 3°7.38 10.117263 3.360235 31.202768 68.01964
2003-04-17 10:09:38 51°24.45 3°7.39 9.859019 3.365712 31.247588 67.98593
2003-04-17 10:10:38 51°24.59 3°7.42 9.975391 3.364764 31.239275 67.952221
2003-04-17 10:11:38 51°24.72 3°7.45 10.257099 3.370241 31.287699 67.98593
2003-04-17 10:12:38 51°24.86 3°7.48 10.337172 3.367187 31.248301 67.98593
2003-04-17 10:13:38 51°24.99 3°7.51 10.114688 3.364659 31.21579 67.98593
2003-04-17 10:14:38 51°25.12 3°7.53 10.049998 3.373401 31.30212 67.952221
2003-04-17 10:15:38 51°25.25 3°7.56 10.029608 3.372031 31.275733 67.98593
2003-04-17 10:16:38 51°25.38 3°7.58 10.4791 3.366028 31.20245 67.98593
2003-04-17 10:17:38 51°25.51 3°7.62 11.036928 3.363079 31.180065 67.952221
2003-04-17 10:18:38 51°25.64 3°7.66 10.273916 3.364027 31.202071 67.98593
2003-04-17 10:19:38 51°25.76 3°7.71 10.514336 3.366449 31.223377 67.98593
2003-04-17 10:20:38 51°25.89 3°7.77 10.287459 3.368029 31.231682 67.952221
2003-04-17 10:21:38 51°26.01 3°7.83 9.489841 3.367713 31.230599 67.98593
2003-04-17 10:22:38 51°26.14 3°7.89 10.52341 3.367292 31.221936 67.952221
2003-04-17 10:23:38 51°26.26 3°7.95 9.980176 3.367292 31.223379 67.98593
2003-04-17 10:24:38 51°26.39 3°8.01 10.581219 3.358444 31.139627 67.952221
2003-04-17 10:25:38 51°26.51 3°8.07 10.492927 3.359919 31.168479 67.98593
2003-04-17 10:26:38 51°26.64 3°8.13 10.47165 3.366871 31.247219 68.01964
2003-04-17 10:27:38 51°26.77 3°8.19 9.998893 3.366976 31.262047 67.98593
2003-04-17 10:28:38 51°26.89 3°8.25 10.010712 3.359919 31.206741 68.01964
2003-04-17 10:29:38 51°27.02 3°8.31 9.865975 3.366029 31.300842 67.98593
2003-04-17 10:30:38 51°27.15 3°8.38 10.26406 3.360657 31.262859 67.952221
2003-04-17 10:31:38 51°27.27 3°8.44 10.195496 3.357814 31.260368 67.918512
2003-04-17 10:32:38 51°27.39 3°8.5 9.949861 3.352653 31.222329 67.98593
2003-04-17 10:33:38 51°27.47 3°8.54 9.812469 3.358868 31.310514 67.98593
2003-04-17 10:34:38 51°27.52 3°8.57 9.996079 3.359078 31.321434 67.98593
2003-04-17 10:35:38 51°27.55 3°8.62 9.963143 3.359078 31.321434 67.98593
2003-04-17 10:36:38 51°27.57 3°8.67 9.91648 3.359289 31.328714 68.01964
2003-04-17 10:37:38 51°27.59 3°8.71 10.46229 3.363186 31.374858 67.98593
2003-04-17 10:38:38 51°27.61 3°8.76 9.951363 3.363397 31.382881 67.98593
2003-04-17 10:39:38 51°27.63 3°8.81 10.333719 3.358447 31.341152 67.952221
2003-04-17 10:40:38 51°27.67 3°8.87 10.054497 3.362976 31.388753 67.952221
2003-04-17 10:41:38 51°27.71 3°8.93 10.069585 3.354655 31.3114 68.01964
2003-04-17 10:42:38 51°27.75 3°9 10.008836 3.364135 31.413914 67.98593
2003-04-17 10:43:38 51°27.8 3°9.06 10.599672 3.364556 31.421205 67.98593
2003-04-17 10:44:38 51°27.86 3°9.11 10.013666 3.358658 31.374021 68.01964
2003-04-17 10:45:38 51°27.91 3°9.15 10.364416 3.358658 31.371827 68.01964
2003-04-17 10:46:38 51°27.97 3°9.18 10.632428 3.364661 31.439146 68.01964
2003-04-17 10:47:38 51°28.03 3°9.19 10.785213 3.364345 31.432208 67.98593
2003-04-17 10:48:38 51°28.07 3°9.17 10.638327 3.364661 31.436214 68.01964
2003-04-17 10:49:38 51°28.09 3°9.14 10.406473 3.363924 31.432973 68.01964
2003-04-17 10:50:38 51°28.11 3°9.11 10.62755 3.364451 31.434765 67.98593
2003-04-17 10:51:38 51°28.12 3°9.09 10.348976 3.363082 31.430838 68.01964
2003-04-17 10:52:38 51°28.13 3°9.07 10.593862 3.363082 31.425707 67.98593
2003-04-17 10:53:38 51°28.14 3°9.06 10.545926 3.363714 31.432989 67.952221
2003-04-17 10:54:38 51°28.14 3°9.06 10.09015 3.362555 31.430512 67.952221
2003-04-17 10:55:38 51°28.15 3°9.06 9.238725 3.363713 31.429324 67.98593
2003-04-17 10:56:38 51°28.15 3°9.05 10.696499 3.363187 31.434862 67.98593
2003-04-17 10:57:38 51°28.15 3°9.05 10.086777 3.362766 31.428296 68.01964
2003-04-17 10:58:38 51°28.16 3°9.05 10.6602 3.358237 31.384291 68.01964
2003-04-17 10:59:38 51°28.16 3°9.04 9.900557 3.36266 31.431603 67.98593
2003-04-17 11:00:38 51°28.17 3°9.04 10.220462 3.363924 31.435172 67.98593
2003-04-17 11:01:38 51°28.17 3°9.04 9.743287 3.362976 31.41729 68.01964
2003-04-17 11:02:38 51°28.18 3°9.03 10.206437 3.363292 31.429356 68.01964
2003-04-17 11:03:38 51°28.19 3°9.03 10.011603 3.356973 31.370463 67.952221
2003-04-17 11:04:38 51°28.19 3°9.02 10.582428 3.363503 31.425676 67.98593
2003-04-17 11:05:38 51°28.2 3°9.02 11.039005 3.361818 31.424336 68.01964
2003-04-17 11:06:38 51°28.21 3°9.01 9.926153 3.361291 31.41961 68.01964
2003-04-17 11:07:38 51°28.22 3°9.01 9.660691 3.364662 31.453815 68.01964
2003-04-17 11:08:38 51°28.22 3°9.01 10.490366 3.361291 31.41961 68.01964
2003-04-17 11:09:38 51°28.23 3°9.02 10.657042 3.359079 31.405477 67.98593
2003-04-17 11:10:38 51°28.22 3°9.03 10.431452 3.361607 31.413359 67.952221
2003-04-17 11:11:38 51°28.22 3°9.05 10.161678 3.363187 31.42973 67.98593
2003-04-17 11:12:38 51°28.21 3°9.06 10.146611 3.36561 31.460706 67.98593
2003-04-17 11:13:38 51°28.2 3°9.07 9.456081 3.358869 31.40256 68.01964
2003-04-17 11:14:38 51°28.19 3°9.08 10.377194 3.362766 31.434895 67.98593
2003-04-17 11:15:38 51°28.18 3°9.09 10.871446 3.356973 31.379246 68.01964
2003-04-17 11:16:38 51°28.18 3°9.11 10.64325 3.36424 31.45385 67.98593
2003-04-17 11:17:38 51°28.18 3°9.12 9.434321 3.364346 31.454208 67.98593
2003-04-17 11:18:38 51°28.17 3°9.15 10.314631 3.363503 31.435204 68.01964
2003-04-17 11:19:38 51°28.17 3°9.19 9.770686 3.364556 31.452723 67.952221
2003-04-17 11:20:38 51°28.15 3°9.24 10.418404 3.364767 31.464449 67.98593
2003-04-17 11:21:38 51°28.12 3°9.29 10.200125 3.365083 31.465523 67.98593
2003-04-17 11:22:38 51°28.08 3°9.36 10.305108 3.360343 31.414915 67.98593
2003-04-17 11:23:38 51°28.09 3°9.55 10.475235 3.361081 31.41816 67.98593
2003-04-17 11:24:38 51°28.25 3°9.55 10.389364 3.361291 31.40569 68.087059
2003-04-17 11:25:38 51°28.3 3°9.27 10.458005 3.365926 31.462514 68.01964
2003-04-17 11:26:38 51°28.32 3°8.93 10.562807 3.362555 31.437845 67.952221
2003-04-17 11:27:38 51°28.35 3°8.59 10.853903 3.362345 31.440797 67.952221
2003-04-17 11:28:38 51°28.38 3°8.26 10.235138 3.366874 31.498056 67.98593
2003-04-17 11:29:38 51°28.41 3°7.92 10.339411 3.367506 31.517122 67.952221
2003-04-17 11:30:38 51°28.44 3°7.58 10.059511 3.365821 31.508463 67.98593
2003-04-17 11:31:38 51°28.47 3°7.24 10.465456 3.367717 31.534777 67.98593
2003-04-17 11:32:38 51°28.5 3°6.9 9.770122 3.363925 31.527088 68.01964
2003-04-17 11:33:38 51°28.54 3°6.56 10.658853 3.360555 31.503853 68.01964
2003-04-17 11:34:38 51°28.57 3°6.23 10.762964 3.363294 31.540444 68.053349
2003-04-17 11:35:38 51°28.61 3°5.89 10.646362 3.360766 31.522275 68.053349
2003-04-17 11:36:38 51°28.64 3°5.55 10.282836 3.361503 31.525514 67.952221
2003-04-17 11:37:38 51°28.64 3°5.21 10.352101 3.367191 31.572845 68.01964
2003-04-17 11:38:38 51°28.65 3°4.87 10.519734 3.371193 31.62113 67.98593
2003-04-17 11:39:38 51°28.65 3°4.53 10.517314 3.370456 31.589795 68.053349
2003-04-17 11:40:38 51°28.66 3°4.19 10.373277 3.372141 31.634695 68.053349
2003-04-17 11:41:38 51°28.66 3°3.88 10.122132 3.374985 31.667252 68.053349
2003-04-17 11:42:38 51°28.68 3°3.74 10.40004 3.373932 31.652585 68.053349
2003-04-17 11:43:38 51°28.69 3°3.71 10.396591 3.371615 31.65145 68.087059
2003-04-17 11:44:38 51°28.7 3°3.71 9.721058 3.371194 31.647805 68.087059
2003-04-17 11:45:38 51°28.71 3°3.71 10.960155 3.372036 31.635822 68.087059
2003-04-17 11:46:38 51°28.72 3°3.72 10.224061 3.375722 31.668992 68.053349
2003-04-17 11:47:38 51°28.73 3°3.74 10.556204 3.374564 31.675478 68.087059
2003-04-17 11:48:38 51°28.74 3°3.76 11.074496 3.372879 31.663126 68.087059
2003-04-17 11:49:38 51°28.74 3°3.78 11.228881 3.376565 31.674794 68.053349
2003-04-17 11:50:38 51°28.74 3°3.8 9.279428 3.376355 31.688181 68.053349
2003-04-17 11:51:38 51°28.75 3°3.82 10.339925 3.3733 31.668997 68.053349
2003-04-17 11:52:38 51°28.75 3°3.85 10.926961 3.374037 31.662577 68.053349
2003-04-17 11:53:38 51°28.75 3°3.87 11.614276 3.376565 31.67776 68.053349
2003-04-17 11:54:38 51°28.76 3°3.89 10.503725 3.375722 31.668992 68.087059
2003-04-17 11:55:38 51°28.76 3°3.92 9.452581 3.376354 31.681503 68.087059
2003-04-17 11:56:38 51°28.76 3°3.94 11.160397 3.375828 31.676022 68.053349
2003-04-17 11:57:38 51°28.76 3°3.97 9.965208 3.374669 31.646919 68.053349
2003-04-17 11:58:38 51°28.77 3°3.99 9.704193 3.374774 31.625811 68.053349
2003-04-17 11:59:38 51°28.77 3°4.02 10.966718 3.374353 31.617735 68.053349
2003-04-17 12:00:38 51°28.77 3°4.04 10.887504 3.378777 31.666675 68.087059
2003-04-17 12:01:38 51°28.78 3°4.07 10.45521 3.379198 31.66069 68.01964
2003-04-17 12:02:38 51°28.78 3°4.09 11.287591 3.382358 31.679459 68.087059
2003-04-17 12:03:38 51°28.79 3°4.12 10.800828 3.381831 31.67917 68.053349
2003-04-17 12:04:38 51°28.8 3°4.15 11.207934 3.380672 31.658993 68.053349
2003-04-17 12:05:38 51°28.8 3°4.18 10.337592 3.382252 31.68725 68.120768
2003-04-17 12:06:38 51°28.81 3°4.2 10.64808 3.382463 31.683515 68.087059
2003-04-17 12:07:38 51°28.83 3°4.23 10.209289 3.383411 31.683 68.120768
2003-04-17 12:08:38 51°28.85 3°4.25 9.611498 3.384148 31.678079 68.087059
2003-04-17 12:09:38 51°28.87 3°4.28 9.667574 3.380672 31.678977 68.087059
2003-04-17 12:10:38 51°28.89 3°4.32 11.006913 3.374774 31.616939 68.053349
2003-04-17 12:11:38 51°28.92 3°4.35 9.813457 3.376564 31.629629 68.120768
2003-04-17 12:12:38 51°28.94 3°4.39 10.166216 3.376038 31.617507 68.053349
2003-04-17 12:13:38 51°28.96 3°4.43 10.315938 3.379724 31.647668 68.120768
2003-04-17 12:14:38 51°28.99 3°4.48 10.611754 3.378776 31.657051 68.087059
2003-04-17 12:15:38 51°29.11 3°4.44 10.347343 3.382252 31.682807 68.120768
2003-04-17 12:16:38 51°29.1 3°4.16 9.908589 3.375406 31.605773 56.794409
2003-04-17 12:17:38 51°29.01 3°3.86 10.133179 3.377723 31.628361 68.120768
2003-04-17 12:18:38 51°28.94 3°3.55 9.46308 3.373299 31.566198 68.087059
2003-04-17 12:19:38 51°28.86 3°3.25 10.095583 3.374458 31.604789 67.98593
2003-04-17 12:20:38 51°28.79 3°2.94 10.184085 3.377618 31.628745 67.98593
2003-04-17 12:21:38 51°28.72 3°2.63 9.409762 3.382146 31.610069 68.053349
2003-04-17 12:22:38 51°28.65 3°2.33 9.929205 3.376459 31.60785 68.01964
2003-04-17 12:23:38 51°28.59 3°2.02 9.883457 3.367084 31.484806 67.98593
2003-04-17 12:24:38 51°28.53 3°1.71 10.264948 3.375405 31.566688 68.01964
2003-04-17 12:25:38 51°28.47 3°1.4 10.117404 3.380566 31.54957 67.952221
2003-04-17 12:26:38 51°28.41 3°1.09 9.967977 3.370033 31.480867 67.98593
2003-04-17 12:27:38 51°28.35 3°0.78 10.362923 3.373404 31.526073 68.01964
2003-04-17 12:28:38 51°28.29 3°0.47 10.252754 3.373404 31.538573 68.01964
2003-04-17 12:29:38 51°28.23 3°0.16 10.294837 3.371929 31.540205 68.01964
2003-04-17 12:30:38 51°28.18 2°59.85 9.805225 3.372877 31.52723 67.98593
2003-04-17 12:31:38 51°28.12 2°59.54 10.069585 3.370139 31.526046 67.952221
2003-04-17 12:32:38 51°28.06 2°59.24 10.234017 3.370034 31.521274 67.98593
2003-04-17 12:33:38 51°28.01 2°58.92 10.020934 3.372667 31.56185 68.01964
2003-04-17 12:34:38 51°27.95 2°58.61 10.387872 3.36719 31.545527 68.01964
2003-04-17 12:35:38 51°27.9 2°58.3 10.463966 3.37014 31.584294 68.01964
2003-04-17 12:36:38 51°27.85 2°57.98 10.376402 3.366558 31.544125 68.087059
2003-04-17 12:37:38 51°27.79 2°57.67 9.696419 3.368981 31.570775 68.087059
2003-04-17 12:38:38 51°27.73 2°57.36 9.742911 3.365084 31.53249 68.087059
2003-04-17 12:39:38 51°27.68 2°57.05 9.780052 3.371404 31.595954 68.120768
2003-04-17 12:40:38 51°27.62 2°56.74 9.756188 3.373405 31.61158 68.087059
2003-04-17 12:41:38 51°27.56 2°56.43 9.423865 3.385413 31.806338 68.424153
2003-04-17 12:42:38 51°27.51 2°56.13 10.213824 3.376672 31.819696 68.01964
2003-04-17 12:43:38 51°27.45 2°55.82 9.514087 3.381518 31.890606 63.839674
2003-04-17 12:44:38 51°27.39 2°55.51 10.374396 3.382571 31.876857 62.794683
2003-04-17 12:45:38 51°27.33 2°55.2 9.425521 3.378358 31.847803 63.098067
2003-04-17 12:46:38 51°27.27 2°54.89 9.900698 3.389102 31.974475 60.536153
2003-04-17 12:47:38 51°27.21 2°54.59 9.425095 3.389101 31.95115 63.165486
2003-04-17 12:48:38 51°27.15 2°54.28 10.042358 3.380992 31.964134 68.323024
2003-04-17 12:49:38 51°27.08 2°53.98 9.955024 3.379728 31.938813 60.738409
2003-04-17 12:50:38 51°27.02 2°53.68 9.697549 3.394051 31.950309 53.322341
2003-04-17 12:51:38 51°26.95 2°53.37 9.657013 3.399318 32.027137 56.659571
2003-04-17 12:52:38 51°26.88 2°53.07 9.745124 3.387311 31.941442 54.839264
2003-04-17 12:53:38 51°26.81 2°52.76 9.66781 3.396896 32.059848 58.884392
2003-04-17 12:54:38 51°26.74 2°52.45 9.662152 3.395948 32.060494 56.558443
2003-04-17 12:55:38 51°26.67 2°52.15 10.031624 3.389312 32.001552 56.524734
2003-04-17 12:56:38 51°26.61 2°51.85 9.709894 3.397107 32.090022 59.390033
2003-04-17 12:57:38 51°26.54 2°51.55 9.786499 3.390998 32.018451 56.086512
2003-04-17 12:58:38 51°26.47 2°51.24 9.880872 3.39795 32.124607 59.390033
2003-04-17 12:59:38 51°26.41 2°50.94 9.81816 3.383836 32.016641 64.07564
2003-04-17 13:00:38 51°26.34 2°50.64 9.724638 3.387628 32.075395 65.862238
2003-04-17 13:01:38 51°26.27 2°50.34 9.993921 3.395317 32.1129 61.513725
2003-04-17 13:02:38 51°26.21 2°50.04 9.602532 3.395107 32.122825 63.199195
2003-04-17 13:03:38 51°26.15 2°49.73 9.669365 3.410485 32.224954 55.547161
2003-04-17 13:04:38 51°26.1 2°49.43 9.962017 3.406482 32.217166 57.131503
2003-04-17 13:05:38 51°26.05 2°49.17 10.02431 3.412064 32.197501 52.075093
2003-04-17 13:06:38 51°26.04 2°48.98 9.410046 3.414592 32.218667 56.828118
2003-04-17 13:07:38 51°26.01 2°48.82 9.982522 3.417226 32.241691 45.333212
2003-04-17 13:08:38 51°26.01 2°48.65 10.051779 3.422282 32.332685 56.592153
2003-04-17 13:09:38 51°26.04 2°48.53 9.448277 3.412381 32.290513 57.704563
2003-04-17 13:10:38 51°26.04 2°48.5 8.625762 3.414594 32.32672 52.041383
2003-04-17 13:11:38 51°26.04 2°48.49 10.272561 3.419966 32.367115 55.412324
2003-04-17 13:12:38 51°26.05 2°48.49 9.956245 3.419544 32.364982 53.389759
2003-04-17 13:13:38 51°26.07 2°48.49 10.511916 3.422809 32.353455 56.389896
2003-04-17 13:14:38 51°26.09 2°48.51 9.880825 3.413961 32.310158 58.243913
2003-04-17 13:15:38 51°26.11 2°48.52 10.509636 3.417754 32.360689 57.165212
2003-04-17 13:16:38 51°26.13 2°48.53 11.106047 3.409538 32.280466 60.502443
2003-04-17 13:17:38 51°26.14 2°48.52 9.015258 3.395844 32.158673 58.98552
2003-04-17 13:18:38 51°26.14 2°48.51 9.978159 3.414699 32.361465 66.671264
2003-04-17 13:19:38 51°26.13 2°48.53 8.463444 3.409433 32.325188 63.671127
2003-04-17 13:20:38 51°26.11 2°48.56 9.067664 3.405114 32.249228 57.502306
2003-04-17 13:21:38 51°26.1 2°48.59 10.06593 3.409643 32.320521 58.41246
2003-04-17 13:22:38 51°26.09 2°48.62 9.796427 3.412171 32.3387 57.232631
2003-04-17 13:23:38 51°26.09 2°48.63 10.00424 3.411644 32.310235 50.726717
2003-04-17 13:24:38 51°26.09 2°48.65 9.946716 3.416174 32.379274 61.985657
2003-04-17 13:25:38 51°26.09 2°48.65 8.734942 3.414384 32.379583 65.525144
2003-04-17 13:26:38 51°26.1 2°48.66 10.239998 3.411223 32.336378 59.255195
2003-04-17 13:27:38 51°26.12 2°48.66 9.39452 3.412804 32.368317 62.086785
2003-04-17 13:28:39 51°26.14 2°48.68 9.823475 3.413857 32.374806 63.367742
2003-04-17 13:29:39 51°26.17 2°48.65 10.060917 3.409433 32.325953 59.895674
2003-04-17 13:30:39 51°26.08 2°48.62 10.070147 3.409117 32.330279 63.772255
2003-04-17 13:31:39 51°25.88 2°48.72 9.637396 3.41175 32.3534 54.367332
2003-04-17 13:32:39 51°25.68 2°48.84 9.939158 3.41807 32.417622 59.727127
2003-04-17 13:33:39 51°25.48 2°48.95 10.069351 3.422915 32.386629 54.46846
2003-04-17 13:34:39 51°25.27 2°49.06 10.070709 3.417224 32.143381 57.906819
2003-04-17 13:35:39 51°25.06 2°49.16 9.676672 3.408378 32.186173 64.547571
2003-04-17 13:36:39 51°24.85 2°49.26 10.303054 3.395949 32.089227 68.424153
2003-04-17 13:37:39 51°24.64 2°49.35 9.819289 3.396897 32.110527 68.390443
2003-04-17 13:38:39 51°24.43 2°49.45 10.134349 3.388576 32.045196 68.087059
2003-04-17 13:39:39 51°24.22 2°49.54 9.965021 3.385205 31.989442 68.120768
2003-04-17 13:40:39 51°24.01 2°49.62 10.084201 3.37267 31.835546 68.154477
2003-04-17 13:41:39 51°23.8 2°49.71 10.027967 3.372986 31.805862 68.188187
2003-04-17 13:42:39 51°23.58 2°49.8 10.252521 3.375198 31.82525 68.087059
2003-04-17 13:43:39 51°23.37 2°49.88 10.068648 3.371616 31.784057 68.087059
2003-04-17 13:44:39 51°23.16 2°49.98 10.058761 3.369089 31.75688 68.120768
2003-04-17 13:45:39 51°22.95 2°50.07 10.212048 3.382358 31.692789 60.064221
2003-04-17 13:46:39 51°22.74 2°50.17 10.202276 3.385939 31.727046 61.142922
2003-04-17 13:47:39 51°22.52 2°50.26 10.227053 3.383622 31.73486 62.221623
2003-04-17 13:48:39 51°22.31 2°50.36 9.963237 3.383727 31.675183 52.041383
2003-04-17 13:49:39 51°22.1 2°50.45 10.31323 3.383621 31.643059 47.861418
2003-04-17 13:50:39 51°21.88 2°50.55 11.049807 3.374879 31.615077 55.108939
2003-04-17 13:51:39 51°21.67 2°50.64 10.095161 3.36898 31.513291 56.389896
2003-04-17 13:52:39 51°21.46 2°50.73 10.578151 3.367293 31.349502 40.917281
2003-04-17 13:53:39 51°21.25 2°50.82 10.744836 3.361604 31.140434 55.04152
2003-04-17 13:54:39 51°21.04 2°50.91 10.950634 3.359708 31.12887 58.513589
2003-04-17 13:55:39 51°20.83 2°51.01 10.869086 3.354441 31.053974 58.581007
2003-04-17 13:56:39 51°20.62 2°51.09 11.87329 3.364447 31.157412 59.929383
2003-04-17 13:57:39 51°20.41 2°51.18 10.871956 3.354125 31.043565 64.6487
2003-04-17 13:58:39 51°20.19 2°51.25 10.50461 3.354547 31.050038 68.120768
2003-04-17 13:59:39 51°19.98 2°51.32 10.970646 3.348122 30.978397 68.087059
2003-04-17 14:00:39 51°19.76 2°51.39 10.57657 3.355389 31.033617 68.154477
2003-04-17 14:01:39 51°19.54 2°51.46 10.78614 3.356547 31.029757 68.053349
2003-04-17 14:02:39 51°19.33 2°51.53 10.590283 3.360865 31.032544 68.154477
2003-04-17 14:03:39 51°19.11 2°51.6 10.783266 3.364762 31.083173 68.356734
2003-04-17 14:04:39 51°18.9 2°51.67 10.568108 3.369502 31.127426 58.850683
2003-04-17 14:05:39 51°18.68 2°51.74 11.549078 3.365289 31.095009 51.333486
2003-04-17 14:06:39 51°18.47 2°51.81 10.187406 3.375822 31.21876 66.738683
2003-04-17 14:07:39 51°18.26 2°51.87 10.722481 3.38288 31.361244 68.087059
2003-04-17 14:08:39 51°18.05 2°51.94 10.626528 3.382038 31.406269 68.120768
2003-04-17 14:09:39 51°17.84 2°52.03 11.053453 3.382038 31.417175 68.087059
2003-04-17 14:10:39 51°17.64 2°52.17 10.333485 3.38088 31.40233 68.087059
2003-04-17 14:11:39 51°17.44 2°52.3 10.633496 3.383513 31.409826 68.01964
2003-04-17 14:12:39 51°17.23 2°52.44 11.143622 3.381616 31.372163 68.087059
2003-04-17 14:13:39 51°17.03 2°52.58 10.270459 3.377508 31.303127 68.01964
2003-04-17 14:14:39 51°16.82 2°52.71 11.360353 3.375717 31.221277 68.053349
2003-04-17 14:15:39 51°16.62 2°52.86 11.111351 3.378245 31.240007 68.087059
2003-04-17 14:16:39 51°16.42 2°53.01 10.988251 3.373396 30.912743 51.198648
2003-04-17 14:17:39 51°16.22 2°53.16 11.053361 3.353488 30.658836 47.625452
2003-04-17 14:18:39 51°16.02 2°53.33 11.073204 3.337163 30.499008 51.940255
2003-04-17 14:19:39 51°15.81 2°53.49 11.515904 3.338743 30.492798 52.78299
2003-04-17 14:20:39 51°15.61 2°53.67 11.610478 3.347905 30.516849 64.61499
2003-04-17 14:21:39 51°15.41 2°53.84 11.497111 3.349063 30.471865 40.748734
2003-04-17 14:22:39 51°15.21 2°54.02 11.403476 3.338636 30.370177 29.826888
2003-04-17 14:23:39 51°15.02 2°54.2 11.261463 3.35454 30.509834 42.939845
2003-04-17 14:24:39 51°14.84 2°54.38 11.245082 3.349485 30.554304 55.816836
2003-04-17 14:25:39 51°14.68 2°54.59 11.025339 3.330948 30.375235 49.142375